createdAt,value
2022-12-03T00:00:29.967Z,15.77
2022-12-03T00:02:56.466Z,15.68
2022-12-03T00:05:22.942Z,15.77
2022-12-03T00:07:49.368Z,16.05
2022-12-03T00:10:15.837Z,15.50
2022-12-03T00:12:42.294Z,15.48
2022-12-03T00:15:10.007Z,15.07
2022-12-03T00:17:36.483Z,16.58
2022-12-03T00:20:04.037Z,16.63
2022-12-03T00:22:30.376Z,14.65
2022-12-03T00:24:56.853Z,16.02
2022-12-03T00:27:23.358Z,16.90
2022-12-03T00:29:49.799Z,15.52
2022-12-03T00:32:16.227Z,16.88
2022-12-03T00:34:42.637Z,15.93
2022-12-03T00:37:08.970Z,15.60
2022-12-03T00:39:35.354Z,14.68
2022-12-03T00:42:01.759Z,14.77
2022-12-03T00:44:28.193Z,15.80
2022-12-03T00:46:54.586Z,16.02
2022-12-03T00:49:20.978Z,15.88
2022-12-03T00:51:47.319Z,15.85
2022-12-03T00:54:13.724Z,15.20
2022-12-03T00:56:40.141Z,16.20
2022-12-03T00:59:06.563Z,13.77
2022-12-03T01:01:32.984Z,15.07
2022-12-03T01:03:59.381Z,15.13
2022-12-03T01:06:25.780Z,15.32
2022-12-03T01:08:52.238Z,15.57
2022-12-03T01:11:37.155Z,16.25
2022-12-03T01:14:05.455Z,14.82
2022-12-03T01:16:31.971Z,15.43
2022-12-03T01:18:58.478Z,15.88
2022-12-03T01:21:24.883Z,16.08
2022-12-03T01:23:51.478Z,16.17
2022-12-03T01:26:17.927Z,17.25
2022-12-03T01:28:44.364Z,15.10
2022-12-03T01:31:29.319Z,17.60
2022-12-03T01:33:55.738Z,17.80
2022-12-03T01:36:22.261Z,15.77
2022-12-03T01:38:48.929Z,16.63
2022-12-03T01:41:18.011Z,15.90
2022-12-03T01:43:45.153Z,16.95
2022-12-03T01:46:18.662Z,17.85
2022-12-03T01:48:46.175Z,15.40
2022-12-03T01:51:14.323Z,16.55
2022-12-03T01:53:41.096Z,17.35
2022-12-03T01:56:09.387Z,16.23
2022-12-03T01:58:35.763Z,16.13
2022-12-03T02:01:10.178Z,16.83
2022-12-03T02:03:36.689Z,16.10
2022-12-03T02:06:03.297Z,15.68
2022-12-03T02:08:35.822Z,15.55
2022-12-03T02:11:25.580Z,16.15
2022-12-03T02:13:56.561Z,15.38
2022-12-03T02:16:23.001Z,16.05
2022-12-03T02:18:49.471Z,15.32
2022-12-03T02:21:25.277Z,14.10
2022-12-03T02:24:06.743Z,13.07
2022-12-03T02:26:33.375Z,14.23
2022-12-03T02:29:00.006Z,13.13
2022-12-03T02:31:26.540Z,13.43
2022-12-03T02:33:53.054Z,13.10
2022-12-03T02:36:20.372Z,13.02
2022-12-03T02:38:49.360Z,13.65
2022-12-03T02:41:37.688Z,13.55
2022-12-03T02:44:06.484Z,13.73
2022-12-03T02:46:34.040Z,15.07
2022-12-03T02:51:27.742Z,14.52
2022-12-03T02:53:56.399Z,15.45
2022-12-03T02:56:27.214Z,15.25
2022-12-03T02:58:58.685Z,16.52
2022-12-03T03:01:25.538Z,15.38
2022-12-03T03:03:52.782Z,15.38
2022-12-03T03:06:20.057Z,15.10
2022-12-03T03:08:46.574Z,16.23
2022-12-03T03:11:13.109Z,15.75
2022-12-03T03:13:39.837Z,14.35
2022-12-03T03:16:07.976Z,14.77
2022-12-03T03:18:35.327Z,15.73
2022-12-03T03:21:02.235Z,15.40
2022-12-03T03:23:28.676Z,16.73
2022-12-03T03:26:02.179Z,16.00
2022-12-03T03:28:29.936Z,15.55
2022-12-03T03:30:58.353Z,17.73
2022-12-03T03:33:24.896Z,16.55
2022-12-03T03:35:51.535Z,15.23
2022-12-03T03:38:19.872Z,16.95
2022-12-03T03:40:48.765Z,16.13
2022-12-03T03:43:15.347Z,16.85
2022-12-03T03:45:42.737Z,17.42
2022-12-03T03:48:09.265Z,16.35
2022-12-03T03:50:36.416Z,17.10
2022-12-03T03:53:04.397Z,17.23
2022-12-03T03:55:31.839Z,16.20
2022-12-03T03:57:58.675Z,18.00
2022-12-03T04:00:25.157Z,18.17
2022-12-03T04:02:53.601Z,17.30
2022-12-03T04:05:22.204Z,17.23
2022-12-03T04:07:48.666Z,18.08
2022-12-03T04:10:34.991Z,18.90
2022-12-03T04:13:01.898Z,17.90
2022-12-03T04:15:28.651Z,18.23
2022-12-03T04:18:13.603Z,18.37
2022-12-03T04:20:40.212Z,17.70
2022-12-03T04:23:06.762Z,15.75
2022-12-03T04:25:51.522Z,15.95
2022-12-03T04:28:37.022Z,16.38
2022-12-03T04:31:22.372Z,15.07
2022-12-03T04:34:07.543Z,15.23
2022-12-03T04:36:33.917Z,16.42
2022-12-03T04:39:00.359Z,15.15
2022-12-03T04:41:26.755Z,15.55
2022-12-03T04:44:11.934Z,16.02
2022-12-03T04:46:38.329Z,14.88
2022-12-03T04:49:04.749Z,15.23
2022-12-03T04:51:31.154Z,13.07
2022-12-03T04:53:57.538Z,14.32
2022-12-03T04:56:23.970Z,14.52
2022-12-03T04:58:50.414Z,13.85
2022-12-03T05:01:16.969Z,16.25
2022-12-03T05:03:43.484Z,15.20
2022-12-03T05:06:09.884Z,16.17
2022-12-03T05:08:36.296Z,15.82
2022-12-03T05:11:02.721Z,16.23
2022-12-03T05:13:29.107Z,16.42
2022-12-03T05:15:55.509Z,15.43
2022-12-03T05:18:21.900Z,16.35
2022-12-03T05:20:53.192Z,17.55
2022-12-03T05:23:20.593Z,16.98
2022-12-03T05:25:46.995Z,16.20
2022-12-03T05:28:13.429Z,19.02
2022-12-03T05:30:39.902Z,18.75
2022-12-03T05:33:06.306Z,18.63
2022-12-03T05:35:33.119Z,19.30
2022-12-03T05:37:59.765Z,17.67
2022-12-03T05:40:26.174Z,17.70
2022-12-03T05:42:56.815Z,18.80
2022-12-03T05:45:26.057Z,19.58
2022-12-03T05:47:54.081Z,19.10
2022-12-03T05:50:21.979Z,19.00
2022-12-03T05:52:48.504Z,18.52
2022-12-03T05:55:15.368Z,18.17
2022-12-03T05:57:41.940Z,19.27
2022-12-03T06:00:14.355Z,17.90
2022-12-03T06:02:41.636Z,20.05
2022-12-03T06:05:09.212Z,19.17
2022-12-03T06:07:35.710Z,19.52
2022-12-03T06:10:02.433Z,19.30
2022-12-03T06:12:28.810Z,20.40
2022-12-03T06:14:55.503Z,21.02
2022-12-03T06:17:22.390Z,19.73
2022-12-03T06:19:49.155Z,23.35
2022-12-03T06:22:15.649Z,21.43
2022-12-03T06:24:42.025Z,20.23
2022-12-03T06:27:08.478Z,21.70
2022-12-03T06:29:34.980Z,21.85
2022-12-03T06:32:02.054Z,18.27
2022-12-03T06:34:28.412Z,21.17
2022-12-03T06:36:54.821Z,21.23
2022-12-03T06:39:21.486Z,20.38
2022-12-03T06:41:48.206Z,20.63
2022-12-03T06:44:15.284Z,18.57
2022-12-03T06:46:41.697Z,19.50
2022-12-03T06:49:11.571Z,18.70
2022-12-03T06:51:38.184Z,19.50
2022-12-03T06:54:05.013Z,21.80
2022-12-03T06:56:35.995Z,21.20
2022-12-03T06:59:05.642Z,18.80
2022-12-03T07:01:35.079Z,18.70
2022-12-03T07:04:01.530Z,20.27
2022-12-03T07:06:27.994Z,20.42
2022-12-03T07:08:54.369Z,20.42
2022-12-03T07:11:32.937Z,19.75
2022-12-03T07:14:05.159Z,19.83
2022-12-03T07:16:33.093Z,22.55
2022-12-03T07:18:59.609Z,22.05
2022-12-03T07:21:25.991Z,22.67
2022-12-03T07:23:52.357Z,21.35
2022-12-03T07:26:19.329Z,21.42
2022-12-03T07:28:46.712Z,24.77
2022-12-03T07:31:13.119Z,20.40
2022-12-03T07:33:39.679Z,20.52
2022-12-03T07:36:06.310Z,20.42
2022-12-03T07:38:32.689Z,22.17
2022-12-03T07:40:59.083Z,24.45
2022-12-03T07:43:25.635Z,21.42
2022-12-03T07:45:52.152Z,21.58
2022-12-03T07:48:18.504Z,21.27
2022-12-03T07:50:45.004Z,21.77
2022-12-03T07:53:11.447Z,19.52
2022-12-03T07:55:40.939Z,20.40
2022-12-03T07:58:07.362Z,20.73
2022-12-03T08:00:33.840Z,18.80
2022-12-03T08:03:00.245Z,18.88
2022-12-03T08:05:26.893Z,18.10
2022-12-03T08:07:53.389Z,18.13
2022-12-03T08:10:19.847Z,19.80
2022-12-03T08:12:46.693Z,20.33
2022-12-03T08:15:35.389Z,21.40
2022-12-03T08:18:13.899Z,20.15
2022-12-03T08:20:42.857Z,18.85
2022-12-03T08:23:18.179Z,18.42
2022-12-03T08:25:45.597Z,17.48
2022-12-03T08:28:13.700Z,16.55
2022-12-03T08:30:44.062Z,15.73
2022-12-03T08:33:24.566Z,16.15
2022-12-03T08:35:51.273Z,16.52
2022-12-03T08:38:22.191Z,16.47
2022-12-03T08:40:51.257Z,15.23
2022-12-03T08:43:23.936Z,14.82
2022-12-03T08:45:57.295Z,15.52
2022-12-03T08:48:29.899Z,15.30
2022-12-03T08:51:19.561Z,14.20
2022-12-03T08:53:47.636Z,14.55
2022-12-03T08:56:24.604Z,16.45
2022-12-03T08:58:57.132Z,13.80
2022-12-03T09:01:30.040Z,14.63
2022-12-03T09:04:02.431Z,14.02
2022-12-03T09:06:28.843Z,13.20
2022-12-03T09:08:55.249Z,11.57
2022-12-03T09:11:21.593Z,14.25
2022-12-03T09:13:48.064Z,13.52
2022-12-03T09:16:14.451Z,13.63
2022-12-03T09:18:40.839Z,13.20
2022-12-03T09:21:07.207Z,13.18
2022-12-03T09:23:33.587Z,13.27
2022-12-03T09:25:59.969Z,13.98
2022-12-03T09:28:26.350Z,14.65
2022-12-03T09:30:52.701Z,14.52
2022-12-03T09:33:19.164Z,13.82
2022-12-03T09:35:45.583Z,15.60
2022-12-03T09:38:11.994Z,16.83
2022-12-03T09:40:39.131Z,16.30
2022-12-03T09:43:05.982Z,14.82
2022-12-03T09:45:32.501Z,16.92
2022-12-03T09:48:01.740Z,16.70
2022-12-03T09:50:28.276Z,18.00
2022-12-03T09:52:58.435Z,17.33
2022-12-03T09:55:27.260Z,17.67
2022-12-03T09:57:55.505Z,19.05
2022-12-03T10:00:25.546Z,17.98
2022-12-03T10:02:54.127Z,17.80
2022-12-03T10:05:21.788Z,19.38
2022-12-03T10:10:18.067Z,19.80
2022-12-03T10:12:44.965Z,18.00
2022-12-03T10:15:17.410Z,18.73
2022-12-03T10:17:45.302Z,18.42
2022-12-03T10:20:14.144Z,17.42
2022-12-03T10:22:40.556Z,17.85
2022-12-03T10:25:12.340Z,20.17
2022-12-03T10:27:40.108Z,17.75
2022-12-03T10:30:19.591Z,17.73
2022-12-03T10:32:48.605Z,18.38
2022-12-03T10:35:21.719Z,18.17
2022-12-03T10:38:00.350Z,17.63
2022-12-03T10:40:35.276Z,18.80
2022-12-03T10:43:22.916Z,20.05
2022-12-03T10:45:50.604Z,18.48
2022-12-03T10:50:51.657Z,16.33
2022-12-03T10:53:19.911Z,18.15
2022-12-03T10:55:48.257Z,17.92
2022-12-03T10:58:23.244Z,17.52
2022-12-03T11:00:52.276Z,17.45
2022-12-03T11:03:24.462Z,18.70
2022-12-03T11:05:52.247Z,19.58
2022-12-03T11:08:24.452Z,18.55
2022-12-03T11:11:27.904Z,19.65
2022-12-03T11:14:02.017Z,18.73
2022-12-03T11:16:40.368Z,18.55
2022-12-03T11:19:12.829Z,17.15
2022-12-03T11:22:07.175Z,15.63
2022-12-03T11:24:39.071Z,16.10
2022-12-03T11:27:06.854Z,17.35
2022-12-03T11:29:52.498Z,17.35
2022-12-03T11:32:37.912Z,17.85
2022-12-03T11:35:16.099Z,14.88
2022-12-03T11:37:42.583Z,16.75
2022-12-03T11:40:17.856Z,18.45
2022-12-03T11:42:46.393Z,17.40
2022-12-03T11:45:18.975Z,18.17
2022-12-03T11:48:12.676Z,16.73
2022-12-03T11:50:51.584Z,17.42
2022-12-03T11:53:24.673Z,16.58
2022-12-03T11:56:06.028Z,19.15
2022-12-03T11:58:33.460Z,17.33
2022-12-03T12:01:02.145Z,18.15
2022-12-03T12:03:50.013Z,16.70
2022-12-03T12:06:21.569Z,18.70
2022-12-03T12:08:47.871Z,17.45
2022-12-03T12:11:33.474Z,16.30
2022-12-03T12:14:06.558Z,17.40
2022-12-03T12:16:51.387Z,18.35
2022-12-03T12:19:42.961Z,16.80
2022-12-03T12:22:20.292Z,17.60
2022-12-03T12:24:51.291Z,18.37
2022-12-03T12:27:22.851Z,18.08
2022-12-03T12:29:54.248Z,17.75
2022-12-03T12:32:30.013Z,18.33
2022-12-03T12:35:01.972Z,17.33
2022-12-03T12:37:34.043Z,17.33
2022-12-03T12:40:06.169Z,18.95
2022-12-03T12:42:37.766Z,17.75
2022-12-03T12:45:17.317Z,17.00
2022-12-03T12:47:53.597Z,20.35
2022-12-03T12:50:20.204Z,16.50
2022-12-03T12:52:53.069Z,19.02
2022-12-03T12:55:20.522Z,19.52
2022-12-03T12:57:47.088Z,15.65
2022-12-03T13:00:16.304Z,17.88
2022-12-03T13:02:55.829Z,20.70
2022-12-03T13:05:23.418Z,20.25
2022-12-03T13:07:52.838Z,19.25
2022-12-03T13:10:20.426Z,20.58
2022-12-03T13:12:46.839Z,21.83
2022-12-03T13:15:36.518Z,20.65
2022-12-03T13:18:20.068Z,18.55
2022-12-03T13:20:46.589Z,18.27
2022-12-03T13:23:25.920Z,20.38
2022-12-03T13:26:09.269Z,20.55
2022-12-03T13:28:41.471Z,20.10
2022-12-03T13:31:26.128Z,21.88
2022-12-03T13:33:53.923Z,21.92
2022-12-03T13:36:25.192Z,20.13
2022-12-03T13:38:53.258Z,19.00
2022-12-03T13:41:39.913Z,22.60
2022-12-03T13:44:13.703Z,23.75
2022-12-03T13:46:40.184Z,20.42
2022-12-03T13:49:20.343Z,22.83
2022-12-03T13:51:47.433Z,20.48
2022-12-03T13:54:19.229Z,21.13
2022-12-03T13:56:46.106Z,21.80
2022-12-03T13:59:13.441Z,22.52
2022-12-03T14:01:40.165Z,21.17
2022-12-03T14:04:06.663Z,19.60
2022-12-03T14:06:33.648Z,22.13
2022-12-03T14:09:00.347Z,23.13
2022-12-03T14:11:45.757Z,22.48
2022-12-03T14:14:12.215Z,20.65
2022-12-03T14:16:38.736Z,20.00
2022-12-03T14:19:06.227Z,19.40
2022-12-03T14:21:32.705Z,16.67
2022-12-03T14:23:59.093Z,19.77
2022-12-03T14:26:26.344Z,19.88
2022-12-03T14:28:52.733Z,19.30
2022-12-03T14:31:19.263Z,20.90
2022-12-03T14:33:45.752Z,21.50
2022-12-03T14:36:12.248Z,21.05
2022-12-03T14:38:38.665Z,20.38
2022-12-03T14:41:25.158Z,22.60
2022-12-03T14:43:51.580Z,21.08
2022-12-03T14:46:18.135Z,20.70
2022-12-03T14:48:44.544Z,20.65
2022-12-03T14:51:10.964Z,21.33
2022-12-03T14:53:37.404Z,20.08
2022-12-03T14:56:03.856Z,20.42
2022-12-03T14:58:30.312Z,19.38
2022-12-03T15:00:56.727Z,20.35
2022-12-03T15:03:23.383Z,20.30
2022-12-03T15:05:49.801Z,23.30
2022-12-03T15:08:16.361Z,21.55
2022-12-03T15:10:42.814Z,22.45
2022-12-03T15:13:09.257Z,24.10
2022-12-03T15:15:50.718Z,23.67
2022-12-03T15:18:17.215Z,25.02
2022-12-03T15:20:43.676Z,25.33
2022-12-03T15:23:14.199Z,24.55
2022-12-03T15:25:41.238Z,24.67
2022-12-03T15:28:07.766Z,24.35
2022-12-03T15:30:37.050Z,23.65
2022-12-03T15:33:04.163Z,22.95
2022-12-03T15:35:31.139Z,24.42
2022-12-03T15:37:57.974Z,24.73
2022-12-03T15:40:24.877Z,27.73
2022-12-03T15:42:51.432Z,23.88
2022-12-03T15:45:17.985Z,25.02
2022-12-03T15:47:44.883Z,26.75
2022-12-03T15:50:13.387Z,25.73
2022-12-03T15:52:40.402Z,25.85
2022-12-03T15:55:07.238Z,26.52
2022-12-03T15:57:33.634Z,26.50
2022-12-03T16:00:00.162Z,24.65
2022-12-03T16:02:33.536Z,26.73
2022-12-03T16:05:01.478Z,23.90
2022-12-03T16:07:28.193Z,23.25
2022-12-03T16:09:55.420Z,25.73
2022-12-03T16:12:23.746Z,21.08
2022-12-03T16:14:50.564Z,24.13
2022-12-03T16:17:17.127Z,23.90
2022-12-03T16:19:43.664Z,23.42
2022-12-03T16:22:10.287Z,23.48
2022-12-03T16:24:36.827Z,23.88
2022-12-03T16:27:03.409Z,25.23
2022-12-03T16:29:29.829Z,23.50
2022-12-03T16:31:56.212Z,25.90
2022-12-03T16:34:22.770Z,25.17
2022-12-03T16:36:49.236Z,24.80
2022-12-03T16:39:16.441Z,21.67
2022-12-03T16:41:42.960Z,25.52
2022-12-03T16:44:22.492Z,23.08
2022-12-03T16:46:48.997Z,23.35
2022-12-03T16:49:15.427Z,23.38
2022-12-03T16:51:41.868Z,24.55
2022-12-03T16:54:08.243Z,24.00
2022-12-03T16:56:34.656Z,26.30
2022-12-03T16:59:01.079Z,23.27
2022-12-03T17:01:27.830Z,23.20
2022-12-03T17:03:54.296Z,26.27
2022-12-03T17:06:20.661Z,25.38
2022-12-03T17:08:49.665Z,21.83
2022-12-03T17:11:16.895Z,22.67
2022-12-03T17:13:43.255Z,21.13
2022-12-03T17:16:09.720Z,22.58
2022-12-03T17:18:36.150Z,22.92
2022-12-03T17:21:02.536Z,22.77
2022-12-03T17:23:28.935Z,24.23
2022-12-03T17:25:55.366Z,22.65
2022-12-03T17:28:21.809Z,23.13
2022-12-03T17:30:48.358Z,23.88
2022-12-03T17:33:14.895Z,22.23
2022-12-03T17:35:41.473Z,23.25
2022-12-03T17:38:09.122Z,22.95
2022-12-03T17:43:01.982Z,22.08
2022-12-03T17:45:28.844Z,23.20
2022-12-03T17:47:55.254Z,22.70
2022-12-03T17:50:21.705Z,24.05
2022-12-03T17:52:48.113Z,23.30
2022-12-03T17:55:23.970Z,23.08
2022-12-03T17:57:54.508Z,24.58
2022-12-03T18:00:21.032Z,23.33
2022-12-03T18:02:47.388Z,24.10
2022-12-03T18:05:14.177Z,22.02
2022-12-03T18:07:40.644Z,21.63
2022-12-03T18:10:07.499Z,22.98
2022-12-03T18:12:34.099Z,22.93
2022-12-03T18:15:00.585Z,23.17
2022-12-03T18:17:26.983Z,22.73
2022-12-03T18:19:53.713Z,23.58
2022-12-03T18:22:20.459Z,24.38
2022-12-03T18:24:51.497Z,21.60
2022-12-03T18:27:19.880Z,22.38
2022-12-03T18:29:46.327Z,23.38
2022-12-03T18:32:27.905Z,23.05
2022-12-03T18:34:55.882Z,23.70
2022-12-03T18:37:26.011Z,23.40
2022-12-03T18:39:53.097Z,23.95
2022-12-03T18:42:21.678Z,23.27
2022-12-03T18:44:50.165Z,24.38
2022-12-03T18:47:19.205Z,24.42
2022-12-03T18:49:45.706Z,22.73
2022-12-03T18:52:22.664Z,24.45
2022-12-03T18:54:49.507Z,24.35
2022-12-03T18:57:16.083Z,25.08
2022-12-03T18:59:42.666Z,23.98
2022-12-03T19:02:38.599Z,24.30
2022-12-03T19:05:02.212Z,22.92
2022-12-03T19:07:28.609Z,24.38
2022-12-03T19:09:55.329Z,24.88
2022-12-03T19:12:22.065Z,25.63
2022-12-03T19:14:48.668Z,24.95
2022-12-03T19:17:15.071Z,26.02
2022-12-03T19:19:41.554Z,23.90
2022-12-03T19:22:08.062Z,26.08
2022-12-03T19:24:35.209Z,24.92
2022-12-03T19:27:03.906Z,26.23
2022-12-03T19:29:30.280Z,26.13
2022-12-03T19:31:56.739Z,23.90
2022-12-03T19:34:26.473Z,25.05
2022-12-03T19:36:52.912Z,25.60
2022-12-03T19:39:19.394Z,26.23
2022-12-03T19:41:45.904Z,25.02
2022-12-03T19:44:14.485Z,25.60
2022-12-03T19:46:41.562Z,26.27
2022-12-03T19:49:08.388Z,28.15
2022-12-03T19:51:35.792Z,26.63
2022-12-03T19:56:30.432Z,24.05
2022-12-03T19:58:57.632Z,25.98
2022-12-03T20:01:27.958Z,27.33
2022-12-03T20:03:56.035Z,25.25
2022-12-03T20:06:24.824Z,26.02
2022-12-03T20:08:55.983Z,26.70
2022-12-03T20:11:25.003Z,26.70
2022-12-03T20:14:02.262Z,25.60
2022-12-03T20:16:29.634Z,27.15
2022-12-03T20:18:59.152Z,23.73
2022-12-03T20:21:26.092Z,26.65
2022-12-03T20:23:53.060Z,24.95
2022-12-03T20:26:21.212Z,26.83
2022-12-03T20:28:48.268Z,27.58
2022-12-03T20:31:20.350Z,27.55
2022-12-03T20:33:49.421Z,26.70
2022-12-03T20:36:18.258Z,27.63
2022-12-03T20:38:45.110Z,28.70
2022-12-03T20:41:14.226Z,29.13
2022-12-03T20:43:41.084Z,28.17
2022-12-03T20:46:12.438Z,28.30
2022-12-03T20:48:39.872Z,27.08
2022-12-03T20:51:08.491Z,27.83
2022-12-03T20:53:35.660Z,26.77
2022-12-03T20:56:03.369Z,27.05
2022-12-03T21:01:26.946Z,26.63
2022-12-03T21:03:55.607Z,26.73
2022-12-03T21:06:24.652Z,27.80
2022-12-03T21:08:53.271Z,26.42
2022-12-03T21:11:22.933Z,28.45
2022-12-03T21:13:49.827Z,28.77
2022-12-03T21:16:29.638Z,28.90
2022-12-03T21:19:06.858Z,28.75
2022-12-03T21:21:35.000Z,27.67
2022-12-03T21:24:01.439Z,28.48
2022-12-03T21:26:27.876Z,26.23
2022-12-03T21:28:54.339Z,29.27
2022-12-03T21:31:25.154Z,28.65
2022-12-03T21:33:56.115Z,28.33
2022-12-03T21:36:23.779Z,27.95
2022-12-03T21:41:18.128Z,26.48
2022-12-03T21:43:44.851Z,27.55
2022-12-03T21:47:12.620Z,27.43
2022-12-03T21:49:01.519Z,28.20
2022-12-03T21:51:27.991Z,29.35
2022-12-03T21:53:54.456Z,29.05
2022-12-03T21:56:20.872Z,29.58
2022-12-03T21:58:47.615Z,28.50
2022-12-03T22:01:19.909Z,30.20
2022-12-03T22:03:46.757Z,29.73
2022-12-03T22:06:13.638Z,29.67
2022-12-03T22:08:41.251Z,28.35
2022-12-03T22:13:39.338Z,28.40
2022-12-03T22:16:08.806Z,28.10
2022-12-03T22:18:36.262Z,28.60
2022-12-03T22:21:05.071Z,29.40
2022-12-03T22:23:32.098Z,28.80
2022-12-03T22:26:04.832Z,27.17
2022-12-03T22:28:32.250Z,27.83
2022-12-03T22:30:58.793Z,29.95
2022-12-03T22:33:25.865Z,30.55
2022-12-03T22:35:56.895Z,30.80
2022-12-03T22:38:23.368Z,27.77
2022-12-03T22:40:50.062Z,27.70
2022-12-03T22:43:17.503Z,26.83
2022-12-03T22:45:43.969Z,28.83
2022-12-03T22:48:10.373Z,28.38
2022-12-03T22:50:45.167Z,31.02
2022-12-03T22:53:12.854Z,29.73
2022-12-03T22:58:06.453Z,29.77
2022-12-03T23:00:37.341Z,28.10
2022-12-03T23:03:05.769Z,30.10
2022-12-03T23:05:38.479Z,29.08
2022-12-03T23:08:10.548Z,28.55
2022-12-03T23:10:40.042Z,29.10
2022-12-03T23:13:07.406Z,29.02
2022-12-03T23:15:34.290Z,28.95
2022-12-03T23:18:01.255Z,30.05
2022-12-03T23:20:28.126Z,26.40
2022-12-03T23:22:55.150Z,32.75
2022-12-03T23:25:21.898Z,29.85
2022-12-03T23:27:49.059Z,29.27
2022-12-03T23:30:16.812Z,28.75
2022-12-03T23:32:44.406Z,29.80
2022-12-03T23:37:38.753Z,29.88
2022-12-03T23:40:05.874Z,30.80
2022-12-03T23:42:32.388Z,31.10
2022-12-03T23:44:58.884Z,28.02
2022-12-03T23:47:25.235Z,30.38
2022-12-03T23:49:51.808Z,31.33
2022-12-03T23:52:18.272Z,30.05
2022-12-03T23:54:44.666Z,27.50
2022-12-03T23:57:11.085Z,27.70
2022-12-03T23:59:39.106Z,31.92
